Millville, NJ

6:17 AM EST on March 02, 2015 (GMT -0500)
Millville Municipal | Change Station
CLOSE
Current Station
Airport
Location: Millville,
Elevation: 82 ft
Nearby Weather Stations
Active Advisory: Winter Weather Advisory Active Notice: Public Information Statement

Elev 82 ft 39.37 °N, 75.08 °W | Updated 23 minutes ago

Overcast
Overcast
32 °F
Feels Like 26 °F
N
7
Wind Variable Wind from West

Today
High -- | Low -- °F
--% Chance of Precip.
Yesterday
High -- | Low -- °F
Precip. -- in
6:31 AM 5:53 PM
Waxing Gibbous, 91% visible
Pressure 30.09 in
Visibility 4.0 miles
Clouds Overcast 400 ft
Windchill 26 °F
Dew Point 31 °F
Humidity 96%
Rainfall 0.00 in
Snow Depth Not available.
UV 0 out of 12
Pollen .50 out of 12
Air Quality Not available.
Flu Activity Not available.
METAR KMIV 021054Z AUTO 26006KT 4SM BR OVC004 00/M01 A3009 RMK AO2 UPE13 SLP189 P0000 T00001006

More Conditions Fewer Conditions

Pressure 30.09 in
Visibility 4.0 miles
Clouds Overcast 400 ft
Windchill 26 °F
Dew Point 31 °F
Humidity 96%
Rainfall 0.00 in
Snow Depth Not available.
UV 0 out of 12
Pollen .50 out of 12
Air Quality Not available.
Flu Activity Not available.
METAR KMIV 021054Z AUTO 26006KT 4SM BR OVC004 00/M01 A3009 RMK AO2 UPE13 SLP189 P0000 T00001006

More Conditions Fewer Conditions

10-Day Weather Forecast

Almanac

Astronomy

Mar. 02, 2015 Rise Set
Actual Time
Civil Twilight
Nautical Twilight
Astronomical Twilight
Moon
Length of Visible Light
Length of Day
Tomorrow will be .
, % of the Moon is Illuminated

Today's Extremes

State Highs State Lows

Community

WunderPhotos

Upload Photos

1,801,756 photos uploaded!

WunderBlogs® & News

Nearby

Air Quality

  Air Quality AQ Index Pollutant
Not available.

Snow Depth

Station Depth Elevation

Earthquake Activity

City Distance Mag. Time & Date
Minimum magnitude displayed is 2.5.

Coastal Water Temperatures

Place Temperature

Nearby Weather Stations

Winter Weather Advisory
Statement as of 4:56 AM EST on March 02, 2015

... Winter Weather Advisory remains in effect until 9 am EST this
morning...

* hazard types... residual sleet or freezing rain in spots.

* Ice accumulation... little additional accumulation expected.

* Timing... any leftover freezing rain or sleet should end around
or shortly after sunrise this morning.

* Impacts... expect untreated surfaces to remain slippery and
hazardous.

* Temperatures... in the mid 30s.

* Visibilities... as low as one half mile with patchy fog.

Precautionary/preparedness actions...

A Winter Weather Advisory means that the effects of the snow...
sleet... or freezing rain will cause travel difficulties. Be
prepared for slippery roads and limited visibilities... and use
caution while driving. Please give yourself plenty of distance
between yourself and all vehicles around you. Also give yourself
extra time to reach your destination.